createdAt,value
2018-12-15T00:00:45.666Z,-0.90
2018-12-15T00:03:22.578Z,-0.90
2018-12-15T00:06:05.308Z,-0.80
2018-12-15T00:08:46.538Z,-0.70
2018-12-15T00:11:24.993Z,-0.70
2018-12-15T00:14:06.501Z,-0.80
2018-12-15T00:16:36.764Z,-0.80
2018-12-15T00:19:10.437Z,-0.80
2018-12-15T00:21:49.472Z,-0.80
2018-12-15T00:24:30.888Z,-0.90
2018-12-15T00:27:11.825Z,-1.00
2018-12-15T00:29:43.652Z,-1.00
2018-12-15T00:32:24.841Z,-1.00
2018-12-15T00:35:00.460Z,-1.00
2018-12-15T00:37:41.798Z,-1.00
2018-12-15T00:40:13.925Z,-1.00
2018-12-15T00:42:48.701Z,-1.00
2018-12-15T00:45:32.519Z,-0.90
2018-12-15T00:48:13.251Z,-0.90
2018-12-15T00:50:45.621Z,-0.90
2018-12-15T00:53:24.230Z,-0.90
2018-12-15T00:56:05.660Z,-1.00
2018-12-15T00:58:40.601Z,-1.00
2018-12-15T01:01:13.254Z,-1.10
2018-12-15T01:03:46.433Z,-1.10
2018-12-15T01:06:27.473Z,-1.10
2018-12-15T01:09:02.165Z,-1.10
2018-12-15T01:11:38.242Z,-1.10
2018-12-15T01:14:11.749Z,-1.00
2018-12-15T01:16:53.049Z,-1.00
2018-12-15T01:19:28.650Z,-1.10
2018-12-15T01:22:11.185Z,-1.00
2018-12-15T01:24:45.793Z,-1.10
2018-12-15T01:27:20.562Z,-1.00
2018-12-15T01:29:53.080Z,-1.00
2018-12-15T01:32:27.770Z,-1.00
2018-12-15T01:35:09.261Z,-1.00
2018-12-15T01:37:50.365Z,-1.10
2018-12-15T01:40:22.408Z,-1.10
2018-12-15T01:43:03.509Z,-1.10
2018-12-15T01:45:38.424Z,-1.20
2018-12-15T01:48:19.864Z,-1.20
2018-12-15T01:50:52.065Z,-1.20
2018-12-15T01:53:32.996Z,-1.10
2018-12-15T01:56:07.673Z,-1.10
2018-12-15T01:58:49.082Z,-1.10
2018-12-15T02:01:30.285Z,-1.10
2018-12-15T02:04:11.401Z,-1.10
2018-12-15T02:06:52.300Z,-1.10
2018-12-15T02:09:25.080Z,-1.20
2018-12-15T02:12:06.464Z,-1.20
2018-12-15T02:14:47.510Z,-1.30
2018-12-15T02:17:33.690Z,-1.40
2018-12-15T02:20:02.912Z,-1.30
2018-12-15T02:22:35.108Z,-1.40
2018-12-15T02:25:07.086Z,-1.30
2018-12-15T02:27:48.154Z,-1.40
2018-12-15T02:30:20.318Z,-1.40
2018-12-15T02:32:55.717Z,-1.40
2018-12-15T02:35:32.994Z,-1.40
2018-12-15T02:38:20.810Z,-1.30
2018-12-15T02:40:57.126Z,-1.40
2018-12-15T02:43:32.121Z,-1.40
2018-12-15T02:46:13.541Z,-1.40
2018-12-15T02:48:54.565Z,-1.50
2018-12-15T02:51:35.591Z,-1.50
2018-12-15T02:54:16.461Z,-1.40
2018-12-15T02:56:57.435Z,-1.40
2018-12-15T02:59:29.417Z,-1.60
2018-12-15T03:02:10.585Z,-1.60
2018-12-15T03:04:52.610Z,-1.60
2018-12-15T03:07:33.485Z,-1.60
2018-12-15T03:10:08.308Z,-1.60
2018-12-15T03:12:39.164Z,-1.60
2018-12-15T03:15:14.349Z,-1.60
2018-12-15T03:17:55.931Z,-1.60
2018-12-15T03:20:28.198Z,-1.50
2018-12-15T03:23:09.302Z,-1.60
2018-12-15T03:25:50.398Z,-1.50
2018-12-15T03:28:22.678Z,-1.40
2018-12-15T03:30:54.867Z,-1.50
2018-12-15T03:33:35.832Z,-1.60
2018-12-15T03:36:10.434Z,-1.60
2018-12-15T03:38:41.708Z,-1.60
2018-12-15T03:41:23.641Z,-1.60
2018-12-15T03:44:02.327Z,-1.60
2018-12-15T03:46:34.788Z,-1.60
2018-12-15T03:49:07.098Z,-1.60
2018-12-15T03:51:39.394Z,-1.70
2018-12-15T03:54:13.802Z,-1.70
2018-12-15T03:56:55.433Z,-1.60
2018-12-15T03:59:27.829Z,-1.60
2018-12-15T04:02:09.651Z,-1.50
2018-12-15T04:04:50.650Z,-1.50
2018-12-15T04:07:23.088Z,-1.50
2018-12-15T04:09:55.033Z,-1.40
2018-12-15T04:12:29.640Z,-1.50
2018-12-15T04:15:08.745Z,-1.60
2018-12-15T04:17:50.406Z,-1.50
2018-12-15T04:20:22.664Z,-1.50
2018-12-15T04:23:03.529Z,-1.60
2018-12-15T04:25:35.681Z,-1.60
2018-12-15T04:28:16.574Z,-1.50
2018-12-15T04:30:48.672Z,-1.50
2018-12-15T04:33:29.660Z,-1.50
2018-12-15T04:36:10.826Z,-1.50
2018-12-15T04:39:02.883Z,-1.60
2018-12-15T04:41:43.589Z,-1.60
2018-12-15T04:44:18.307Z,-1.60
2018-12-15T04:46:59.854Z,-1.60
2018-12-15T04:49:31.974Z,-1.60
2018-12-15T04:52:13.098Z,-1.60
2018-12-15T04:54:47.594Z,-1.50
2018-12-15T04:57:28.442Z,-1.50
2018-12-15T05:00:00.624Z,-1.50
2018-12-15T05:02:49.008Z,-1.40
2018-12-15T05:05:21.213Z,-1.50
2018-12-15T05:07:56.355Z,-1.60
2018-12-15T05:10:30.845Z,-1.50
2018-12-15T05:13:06.101Z,-1.60
2018-12-15T05:15:38.885Z,-1.60
2018-12-15T05:18:18.173Z,-1.60
2018-12-15T05:20:47.506Z,-1.50
2018-12-15T05:23:22.199Z,-1.50
2018-12-15T05:26:03.043Z,-1.40
2018-12-15T05:28:44.187Z,-1.60
2018-12-15T05:31:17.290Z,-1.60
2018-12-15T05:33:51.231Z,-1.50
2018-12-15T05:36:35.055Z,-1.50
2018-12-15T05:39:07.821Z,-1.60
2018-12-15T05:41:48.954Z,-1.50
2018-12-15T05:44:23.255Z,-1.50
2018-12-15T05:46:58.830Z,-1.60
2018-12-15T05:49:30.706Z,-1.60
2018-12-15T05:52:05.346Z,-1.70
2018-12-15T05:54:40.546Z,-1.70
2018-12-15T05:57:21.340Z,-1.70
2018-12-15T05:59:53.433Z,-1.70
2018-12-15T06:02:34.722Z,-1.80
2018-12-15T06:05:16.510Z,-1.80
2018-12-15T06:07:57.442Z,-1.70
2018-12-15T06:10:29.604Z,-1.70
2018-12-15T06:13:10.874Z,-1.80
2018-12-15T06:15:42.926Z,-1.80
2018-12-15T06:18:24.022Z,-1.80
2018-12-15T06:20:58.709Z,-1.70
2018-12-15T06:23:40.334Z,-1.70
2018-12-15T06:26:12.598Z,-1.70
2018-12-15T06:28:53.393Z,-1.70
2018-12-15T06:31:27.941Z,-1.70
2018-12-15T06:34:09.291Z,-1.70
2018-12-15T06:36:43.881Z,-1.70
2018-12-15T06:39:15.467Z,-1.70
2018-12-15T06:41:56.605Z,-1.70
2018-12-15T06:44:37.698Z,-1.70
2018-12-15T06:47:18.686Z,-1.70
2018-12-15T06:49:51.033Z,-1.70
2018-12-15T06:52:32.257Z,-1.70
2018-12-15T06:55:06.957Z,-1.70
2018-12-15T06:57:48.449Z,-1.70
2018-12-15T07:00:20.818Z,-1.60
2018-12-15T07:03:01.682Z,-1.60
2018-12-15T07:05:36.314Z,-1.50
2018-12-15T07:08:17.876Z,-1.50
2018-12-15T07:10:52.570Z,-1.40
2018-12-15T07:13:23.338Z,-1.40
2018-12-15T07:16:04.255Z,-1.40
2018-12-15T07:18:36.406Z,-1.50
2018-12-15T07:21:08.725Z,-1.40
2018-12-15T07:23:43.041Z,-1.30
2018-12-15T07:26:24.608Z,-1.30
2018-12-15T07:29:05.609Z,-1.30
2018-12-15T07:31:47.449Z,-1.40
2018-12-15T07:34:17.766Z,-1.50
2018-12-15T07:36:50.365Z,-1.60
2018-12-15T07:39:23.002Z,-1.50
2018-12-15T07:42:04.019Z,-1.50
2018-12-15T07:44:44.999Z,-1.50
2018-12-15T07:47:19.563Z,-1.50
2018-12-15T07:49:51.589Z,-1.50
2018-12-15T07:52:26.096Z,-1.50
2018-12-15T07:55:01.175Z,-1.50
2018-12-15T07:57:42.525Z,-1.50
2018-12-15T08:00:16.994Z,-1.50
2018-12-15T08:02:48.074Z,-1.40
2018-12-15T08:05:22.026Z,-1.40
2018-12-15T08:07:56.362Z,-1.40
2018-12-15T08:10:33.153Z,-1.40
2018-12-15T08:13:10.165Z,-1.30
2018-12-15T08:15:40.989Z,-1.30
2018-12-15T08:18:15.292Z,-1.30
2018-12-15T08:20:45.830Z,-1.30
2018-12-15T08:23:20.318Z,-1.30
2018-12-15T08:26:01.936Z,-1.30
2018-12-15T08:28:42.883Z,-1.30
2018-12-15T08:31:18.478Z,-1.30
2018-12-15T08:34:00.304Z,-1.30
2018-12-15T08:36:41.066Z,-1.20
2018-12-15T08:39:13.241Z,-1.10
2018-12-15T08:41:48.433Z,-1.00
2018-12-15T08:44:20.778Z,-1.00
2018-12-15T08:46:52.916Z,-0.80
2018-12-15T08:49:25.181Z,-1.00
2018-12-15T08:52:06.466Z,-1.00
2018-12-15T08:54:47.463Z,-1.10
2018-12-15T08:57:28.503Z,-0.90
2018-12-15T09:00:13.484Z,-0.80
2018-12-15T09:02:46.577Z,-0.80
2018-12-15T09:05:19.555Z,-0.80
2018-12-15T09:07:50.493Z,-1.00
2018-12-15T09:10:21.423Z,-0.80
2018-12-15T09:12:55.820Z,-0.80
2018-12-15T09:15:37.222Z,-0.70
2018-12-15T09:18:11.811Z,-0.60
2018-12-15T09:20:44.285Z,-0.50
2018-12-15T09:23:18.688Z,-0.50
2018-12-15T09:26:00.118Z,-0.60
2018-12-15T09:28:32.222Z,-0.60
2018-12-15T09:31:06.837Z,-0.80
2018-12-15T09:33:48.270Z,-0.70
2018-12-15T09:36:29.330Z,-0.60
2018-12-15T09:39:01.821Z,-0.50
2018-12-15T09:41:43.722Z,-0.60
2018-12-15T09:44:24.959Z,-0.80
2018-12-15T09:47:07.794Z,-0.70
2018-12-15T09:49:39.831Z,-0.80
2018-12-15T09:52:11.953Z,-0.50
2018-12-15T09:54:52.918Z,-0.60
2018-12-15T09:57:33.941Z,-0.60
2018-12-15T10:00:06.578Z,-0.40
2018-12-15T10:02:48.261Z,-0.30
2018-12-15T10:05:29.363Z,-0.30
2018-12-15T10:08:10.587Z,-0.30
2018-12-15T10:10:47.554Z,-0.30
2018-12-15T10:13:29.116Z,-0.40
2018-12-15T10:16:01.877Z,-0.60
2018-12-15T10:18:43.830Z,-0.60
2018-12-15T10:21:18.723Z,-0.60
2018-12-15T10:23:53.455Z,-0.70
2018-12-15T10:26:28.529Z,-0.70
2018-12-15T10:29:01.194Z,-0.70
2018-12-15T10:31:47.526Z,-0.70
2018-12-15T10:34:28.977Z,-0.70
2018-12-15T10:37:10.036Z,-0.40
2018-12-15T10:39:42.858Z,-0.20
2018-12-15T10:42:24.377Z,-0.40
2018-12-15T10:47:31.662Z,-0.90
2018-12-15T10:50:05.089Z,-0.90
2018-12-15T10:52:46.298Z,-0.80
2018-12-15T10:55:27.898Z,-0.50
2018-12-15T10:58:00.440Z,-0.40
2018-12-15T11:00:40.399Z,-0.60
2018-12-15T11:03:15.000Z,-0.50
2018-12-15T11:05:56.493Z,-0.40
2018-12-15T11:08:38.519Z,-0.60
2018-12-15T11:11:14.318Z,-0.60
2018-12-15T11:13:49.422Z,-0.50
2018-12-15T11:16:30.978Z,-0.60
2018-12-15T11:19:03.221Z,-0.50
2018-12-15T11:21:43.991Z,-0.30
2018-12-15T11:24:22.449Z,-0.40
2018-12-15T11:26:59.321Z,-0.40
2018-12-15T11:29:31.390Z,-0.10
2018-12-15T11:32:05.869Z,0.10
2018-12-15T11:34:48.442Z,0.00
2018-12-15T11:37:30.490Z,-0.30
2018-12-15T11:40:06.095Z,-0.40
2018-12-15T11:42:41.274Z,-0.70
2018-12-15T11:45:14.385Z,-0.60
2018-12-15T11:50:20.291Z,-0.50
2018-12-15T11:53:01.090Z,-0.40
2018-12-15T11:55:35.828Z,-0.20
2018-12-15T11:58:17.475Z,-0.20
2018-12-15T12:00:52.167Z,-0.30
2018-12-15T12:03:24.801Z,-0.20
2018-12-15T12:05:59.433Z,-0.20
2018-12-15T12:08:40.859Z,-0.10
2018-12-15T12:11:15.266Z,0.00
2018-12-15T12:13:50.305Z,0.10
2018-12-15T12:16:32.665Z,0.20
2018-12-15T12:19:04.846Z,-0.10
2018-12-15T12:21:39.361Z,-0.20
2018-12-15T12:24:20.973Z,-0.10
2018-12-15T12:27:04.060Z,-0.10
2018-12-15T12:29:36.181Z,0.00
2018-12-15T12:32:17.369Z,0.10
2018-12-15T12:34:50.447Z,0.10
2018-12-15T12:37:31.417Z,0.10
2018-12-15T12:40:04.077Z,-0.10
2018-12-15T12:42:46.891Z,0.00
2018-12-15T12:45:23.782Z,0.10
2018-12-15T12:47:56.128Z,0.00
2018-12-15T12:50:29.233Z,0.00
2018-12-15T12:53:02.125Z,-0.10
2018-12-15T12:55:35.155Z,0.00
2018-12-15T12:58:10.496Z,0.00
2018-12-15T13:00:42.974Z,0.10
2018-12-15T13:03:24.133Z,-0.20
2018-12-15T13:05:58.757Z,-0.20
2018-12-15T13:08:40.409Z,-0.50
2018-12-15T13:11:15.213Z,-0.50
2018-12-15T13:13:56.475Z,-0.60
2018-12-15T13:16:37.723Z,-0.60
2018-12-15T13:19:09.805Z,-0.70
2018-12-15T13:21:50.917Z,-0.70
2018-12-15T13:24:33.342Z,-0.70
2018-12-15T13:27:14.957Z,-0.70
2018-12-15T13:29:47.450Z,-0.70
2018-12-15T13:32:27.308Z,-0.60
2018-12-15T13:35:02.038Z,-0.50
2018-12-15T13:37:34.104Z,-0.50
2018-12-15T13:40:07.805Z,-0.80
2018-12-15T13:42:40.069Z,-0.70
2018-12-15T13:45:21.673Z,-0.80
2018-12-15T13:47:54.011Z,-0.80
2018-12-15T13:50:26.122Z,-0.80
2018-12-15T13:53:07.090Z,-0.60
2018-12-15T13:55:47.961Z,-0.50
2018-12-15T13:58:29.274Z,-0.40
2018-12-15T14:01:01.412Z,-0.30
2018-12-15T14:03:33.786Z,-0.40
2018-12-15T14:06:14.902Z,-0.40
2018-12-15T14:08:55.837Z,-0.50
2018-12-15T14:11:37.034Z,-0.60
2018-12-15T14:14:17.889Z,-0.60
2018-12-15T14:16:58.762Z,-0.70
2018-12-15T14:19:33.269Z,-0.80
2018-12-15T14:22:14.622Z,-0.60
2018-12-15T14:24:51.628Z,-0.60
2018-12-15T14:27:33.336Z,-0.50
2018-12-15T14:30:06.966Z,-0.50
2018-12-15T14:32:42.050Z,-0.60
2018-12-15T14:35:23.858Z,-0.60
2018-12-15T14:38:04.986Z,-0.60
2018-12-15T14:40:37.374Z,-0.60
2018-12-15T14:43:11.864Z,-0.70
2018-12-15T14:45:44.764Z,-0.80
2018-12-15T14:48:16.646Z,-0.70
2018-12-15T14:50:48.899Z,-0.70
2018-12-15T14:53:21.153Z,-0.70
2018-12-15T14:55:53.165Z,-0.70
2018-12-15T14:58:24.661Z,-0.70
2018-12-15T15:00:55.465Z,-0.70
2018-12-15T15:03:36.560Z,-0.80
2018-12-15T15:09:03.094Z,-0.80
2018-12-15T15:11:37.004Z,-0.80
2018-12-15T15:14:08.854Z,-0.80
2018-12-15T15:16:43.520Z,-0.80
2018-12-15T15:19:16.062Z,-0.80
2018-12-15T15:21:50.630Z,-0.80
2018-12-15T15:24:29.701Z,-0.90
2018-12-15T15:27:04.829Z,-1.00
2018-12-15T15:29:39.906Z,-1.10
2018-12-15T15:32:21.430Z,-1.10
2018-12-15T15:35:02.578Z,-1.10
2018-12-15T15:37:43.502Z,-1.10
2018-12-15T15:40:16.099Z,-1.30
2018-12-15T15:42:48.852Z,-1.30
2018-12-15T15:45:23.521Z,-1.30
2018-12-15T15:47:56.546Z,-1.20
2018-12-15T15:50:28.378Z,-1.30
2018-12-15T15:53:09.400Z,-1.30
2018-12-15T15:55:41.469Z,-1.20
2018-12-15T15:58:22.469Z,-1.30
2018-12-15T16:00:54.314Z,-1.30
2018-12-15T16:03:35.302Z,-1.30
2018-12-15T16:06:17.170Z,-1.30
2018-12-15T16:08:49.330Z,-1.30
2018-12-15T16:11:32.439Z,-1.30
2018-12-15T16:14:13.327Z,-1.20
2018-12-15T16:16:54.109Z,-1.20
2018-12-15T16:19:26.269Z,-1.10
2018-12-15T16:21:56.686Z,-1.10
2018-12-15T16:24:35.406Z,-1.10
2018-12-15T16:27:10.473Z,-1.10
2018-12-15T16:29:45.675Z,-1.20
2018-12-15T16:32:20.737Z,-1.10
2018-12-15T16:34:55.642Z,-1.20
2018-12-15T16:37:37.186Z,-1.20
2018-12-15T16:40:09.676Z,-1.20
2018-12-15T16:42:53.308Z,-1.20
2018-12-15T16:45:25.472Z,-1.20
2018-12-15T16:48:06.714Z,-1.20
2018-12-15T16:50:38.878Z,-1.30
2018-12-15T16:53:19.802Z,-1.30
2018-12-15T16:56:00.710Z,-1.30
2018-12-15T16:58:32.869Z,-1.30
2018-12-15T17:01:07.441Z,-1.10
2018-12-15T17:03:42.719Z,-1.10
2018-12-15T17:06:24.182Z,-1.10
2018-12-15T17:09:05.130Z,-1.20
2018-12-15T17:11:47.118Z,-1.30
2018-12-15T17:14:28.234Z,-1.40
2018-12-15T17:17:00.714Z,-1.40
2018-12-15T17:19:32.795Z,-1.30
2018-12-15T17:22:13.773Z,-1.30
2018-12-15T17:24:48.653Z,-1.40
2018-12-15T17:27:29.477Z,-1.50
2018-12-15T17:30:01.553Z,-1.50
2018-12-15T17:32:42.445Z,-1.50
2018-12-15T17:35:17.037Z,-1.50
2018-12-15T17:37:52.409Z,-1.40
2018-12-15T17:40:35.247Z,-1.40
2018-12-15T17:43:19.285Z,-1.40
2018-12-15T17:46:09.944Z,-1.50
2018-12-15T17:48:53.137Z,-1.50
2018-12-15T17:51:34.903Z,-1.60
2018-12-15T17:54:09.823Z,-1.50
2018-12-15T17:56:50.958Z,-1.60
2018-12-15T17:59:23.189Z,-1.50
2018-12-15T18:01:57.909Z,-1.60
2018-12-15T18:04:39.305Z,-1.60
2018-12-15T18:07:11.331Z,-1.70
2018-12-15T18:09:43.370Z,-1.60
2018-12-15T18:12:17.237Z,-1.70
2018-12-15T18:14:49.615Z,-1.70
2018-12-15T18:17:32.958Z,-1.80
2018-12-15T18:20:05.634Z,-1.80
2018-12-15T18:22:47.349Z,-1.80
2018-12-15T18:25:21.926Z,-1.90
2018-12-15T18:27:56.305Z,-1.80
2018-12-15T18:30:29.075Z,-1.80
2018-12-15T18:33:07.653Z,-1.90
2018-12-15T18:35:40.625Z,-1.90
2018-12-15T18:38:12.650Z,-1.90
2018-12-15T18:40:45.490Z,-1.80
2018-12-15T18:43:22.675Z,-1.80
2018-12-15T18:45:57.558Z,-1.70
2018-12-15T18:48:30.475Z,-1.70
2018-12-15T18:51:05.126Z,-1.70
2018-12-15T18:53:38.377Z,-1.70
2018-12-15T18:56:10.737Z,-1.70
2018-12-15T18:58:45.341Z,-1.70
2018-12-15T19:01:24.539Z,-1.80
2018-12-15T19:03:56.947Z,-1.80
2018-12-15T19:06:29.804Z,-1.90
2018-12-15T19:09:06.850Z,-1.90
2018-12-15T19:11:39.801Z,-1.80
2018-12-15T19:14:13.045Z,-1.90
2018-12-15T19:16:47.720Z,-1.90
2018-12-15T19:19:22.494Z,-1.90
2018-12-15T19:21:55.295Z,-2.00
2018-12-15T19:24:36.219Z,-1.90
2018-12-15T19:27:08.434Z,-2.00
2018-12-15T19:29:44.890Z,-2.00
2018-12-15T19:32:17.337Z,-1.90
2018-12-15T19:34:52.562Z,-2.00
2018-12-15T19:37:23.734Z,-2.00
2018-12-15T19:39:55.829Z,-2.00
2018-12-15T19:42:36.946Z,-2.00
2018-12-15T19:45:17.873Z,-2.00
2018-12-15T19:47:50.793Z,-1.90
2018-12-15T19:50:25.876Z,-2.00
2018-12-15T19:52:57.280Z,-1.90
2018-12-15T19:55:38.227Z,-1.90
2018-12-15T19:58:19.705Z,-2.00
2018-12-15T20:00:52.233Z,-2.00
2018-12-15T20:03:34.178Z,-2.00
2018-12-15T20:06:15.442Z,-2.00
2018-12-15T20:08:47.398Z,-2.10
2018-12-15T20:11:19.816Z,-2.20
2018-12-15T20:13:52.861Z,-2.20
2018-12-15T20:16:25.926Z,-2.20
2018-12-15T20:19:01.408Z,-2.30
2018-12-15T20:21:40.479Z,-2.30
2018-12-15T20:24:14.300Z,-2.40
2018-12-15T20:26:46.449Z,-2.60
2018-12-15T20:29:18.928Z,-2.60
2018-12-15T20:31:51.773Z,-2.60
2018-12-15T20:34:26.484Z,-2.70
2018-12-15T20:37:01.613Z,-2.70
2018-12-15T20:39:31.937Z,-2.80
2018-12-15T20:42:13.034Z,-2.80
2018-12-15T20:44:47.605Z,-2.90
2018-12-15T20:47:29.198Z,-3.00
2018-12-15T20:50:01.368Z,-3.00
2018-12-15T20:52:47.561Z,-3.10
2018-12-15T20:55:17.186Z,-3.00
2018-12-15T20:57:51.614Z,-3.10
2018-12-15T21:00:24.129Z,-3.10
2018-12-15T21:03:03.010Z,-3.20
2018-12-15T21:05:38.014Z,-3.20
2018-12-15T21:08:19.538Z,-3.30
2018-12-15T21:10:51.729Z,-3.30
2018-12-15T21:13:24.093Z,-3.40
2018-12-15T21:16:05.361Z,-3.40
2018-12-15T21:18:39.850Z,-3.50
2018-12-15T21:21:11.732Z,-3.50
2018-12-15T21:23:46.247Z,-3.50
2018-12-15T21:26:33.437Z,-3.50
2018-12-15T21:29:06.042Z,-3.50
2018-12-15T21:31:41.258Z,-3.50
2018-12-15T21:34:22.918Z,-3.50
2018-12-15T21:36:57.558Z,-3.60
2018-12-15T21:39:30.272Z,-3.60
2018-12-15T21:42:11.202Z,-3.60
2018-12-15T21:44:45.680Z,-3.50
2018-12-15T21:47:27.175Z,-3.60
2018-12-15T21:49:59.246Z,-3.60
2018-12-15T21:52:33.877Z,-3.60
2018-12-15T21:55:09.094Z,-3.70
2018-12-15T21:58:00.530Z,-3.70
2018-12-15T22:00:35.514Z,-3.70
2018-12-15T22:03:08.006Z,-3.70
2018-12-15T22:05:42.725Z,-3.70
2018-12-15T22:08:17.904Z,-3.80
2018-12-15T22:10:51.101Z,-3.80
2018-12-15T22:13:23.546Z,-3.80
2018-12-15T22:15:55.593Z,-3.90
2018-12-15T22:18:36.862Z,-3.90
2018-12-15T22:21:09.387Z,-4.00
2018-12-15T22:23:41.285Z,-4.00
2018-12-15T22:26:16.230Z,-4.10
2018-12-15T22:31:20.985Z,-4.30
2018-12-15T22:33:53.825Z,-4.30
2018-12-15T22:36:28.474Z,-4.40
2018-12-15T22:39:01.062Z,-4.50
2018-12-15T22:41:44.242Z,-4.50
2018-12-15T22:44:19.202Z,-4.70
2018-12-15T22:46:57.588Z,-4.80
2018-12-15T22:49:31.890Z,-4.90
2018-12-15T22:52:13.562Z,-5.00
2018-12-15T22:54:48.574Z,-5.30
2018-12-15T22:57:30.183Z,-5.10
2018-12-15T23:00:06.961Z,-5.10
2018-12-15T23:02:48.715Z,-5.30
2018-12-15T23:05:23.285Z,-5.30
2018-12-15T23:07:54.073Z,-5.40
2018-12-15T23:10:26.604Z,-5.50
2018-12-15T23:12:58.764Z,-5.60
2018-12-15T23:15:37.357Z,-5.50
2018-12-15T23:18:18.897Z,-5.50
2018-12-15T23:20:51.158Z,-5.40
2018-12-15T23:23:32.346Z,-5.50
2018-12-15T23:26:05.506Z,-5.60
2018-12-15T23:28:46.570Z,-5.60
2018-12-15T23:31:21.278Z,-5.70
2018-12-15T23:34:02.309Z,-5.70
2018-12-15T23:36:37.172Z,-5.80
2018-12-15T23:39:09.901Z,-5.80
2018-12-15T23:41:51.213Z,-5.80
2018-12-15T23:44:32.339Z,-5.90
2018-12-15T23:47:13.906Z,-5.90
2018-12-15T23:49:46.058Z,-5.80
2018-12-15T23:52:27.814Z,-5.70
2018-12-15T23:55:07.028Z,-5.70
2018-12-15T23:57:48.697Z,-5.70
